EW6089 Weather Reports


Display with metric or nautical units.
time (UTC)temp
F
wind
direction
speed
MPH
gust
MPH
rain 1hr
in
rain 24hr
in
rain mn
in
humidity
%
barometer
mb
20230206100056 41 0.0 1.0 0.00 0.27 0.00 97 1027.1
20230206095016 41 0.0 1.0 0.00 0.27 0.00 97 1026.9
20230206094036 41 0.0 1.0 0.00 0.27 0.00 97 1026.7
20230206093016 42 0.0 1.0 0.00 0.27 0.00 97 1026.3
20230206092016 42 0.0 1.0 0.00 0.27 0.00 97 1026.1
20230206091035 42 0.0 1.0 0.00 0.27 0.00 97 1025.9
20230206090015 42 0.0 1.0 0.00 0.27 0.00 97 1025.7
20230206085015 42 0.0 1.0 0.00 0.27 0.00 97 1025.6
20230206084036 42 0.0 1.0 0.00 0.27 0.00 97 1025.5
20230206083015 42 0.0 1.0 0.00 0.27 0.00 97 1025.3
20230206082015 42 0.0 0.0 0.00 0.27 0.00 97 1025.2
20230206081015 42 0.0 1.0 0.00 0.27 0.00 97 1025.2
20230206080015 42 0.0 0.0 0.00 0.27 0.27 97 1025.0
20230206075125 42 0.0 2.0 0.00 0.27 0.27 97 1025.0
20230206074015 42 0.0 1.0 0.00 0.27 0.27 97 1024.7
20230206073056 43 0.0 1.0 0.00 0.27 0.27 97 1024.5
20230206072015 43 0.0 1.0 0.00 0.27 0.27 97 1024.3
20230206071016 43 0.0 2.0 0.00 0.27 0.27 97 1024.0
20230206070015 43 0.0 1.0 0.00 0.27 0.27 97 1023.9
20230206065015 44 0.0 2.0 0.00 0.27 0.27 97 1023.8
20230206064017 44 0.0 1.0 0.00 0.27 0.27 97 1023.5
20230206063017 44 0.0 1.0 0.00 0.27 0.27 97 1023.4
20230206062017 44 0.0 1.0 0.00 0.27 0.27 97 1023.2
20230206061057 44 0.0 1.0 0.00 0.27 0.27 97 1022.9
20230206060018 44 0.0 1.0 0.00 0.28 0.27 97 1022.7
20230206055018 44 0.0 1.0 0.00 0.28 0.27 97 1022.4
20230206054022 44 0.0 0.0 0.00 0.28 0.27 97 1022.3
20230206053018 44 0.0 0.0 0.00 0.28 0.27 97 1022.0
20230206052018 44 0.0 0.0 0.00 0.28 0.27 97 1021.7
20230206051018 44 0.0 0.0 0.02 0.29 0.27 97 1021.6
20230206050018 44 0.0 0.0 0.03 0.29 0.27 97 1021.4
20230206045018 45 0.0 1.0 0.05 0.29 0.27 97 1020.9
20230206044059 44 0.0 0.0 0.06 0.30 0.27 97 1020.7
20230206043018 45 0.0 1.0 0.07 0.30 0.27 97 1020.4
20230206042018 45 0.0 1.0 0.08 0.31 0.27 97 1020.2
20230206041018 45 0.0 1.0 0.07 0.29 0.25 97 1019.9
20230206040017 45 0.0 1.0 0.06 0.28 0.24 97 1019.8
20230206035017 45 0.0 1.0 0.05 0.26 0.22 97 1019.5
20230206034017 45 0.0 0.0 0.05 0.26 0.21 97 1019.2
20230206033017 45 0.0 0.0 0.04 0.25 0.20 97 1019.0
20230206032017 45 0.0 0.0 0.03 0.24 0.19 97 1018.7
20230206031017 45 0.0 0.0 0.02 0.24 0.18 97 1018.5
20230206030017 45 0.0 0.0 0.02 0.24 0.18 97 1018.2
20230206025017 45 0.0 1.0 0.01 0.24 0.17 97 1018.0
20230206024017 45 0.0 0.0 0.00 0.23 0.16 97 1017.7
20230206023018 45 0.0 0.0 0.00 0.23 0.16 97 1017.4
20230206022017 45 0.0 0.0 0.00 0.23 0.16 97 1017.2
20230206021017 45 0.0 0.0 0.00 0.23 0.16 97 1016.9
20230206020017 45 0.0 0.0 0.00 0.23 0.16 97 1016.8
20230206015017 45 0.0 0.0 0.00 0.23 0.16 97 1016.6
20230206014037 45 0.0 0.0 0.00 0.23 0.16 97 1016.5
20230206013017 45 0.0 0.0 0.00 0.23 0.16 97 1016.4
20230206012037 45 0.0 0.0 0.00 0.23 0.16 97 1016.1
20230206011037 45 0.0 0.0 0.00 0.23 0.16 97 1015.9
20230206010017 45 0.0 0.0 0.00 0.23 0.16 97 1015.7
20230206005016 45 0.0 0.0 0.01 0.23 0.16 97 1015.6
20230206004036 45 0.0 0.0 0.02 0.23 0.16 97 1015.5
20230206003036 45 0.0 0.0 0.02 0.23 0.16 97 1015.3
20230206002017 45 0.0 0.0 0.02 0.23 0.16 97 1015.1
20230206001017 45 0.0 0.0 0.02 0.24 0.16 97 1014.8
20230206000017 45 0.0 0.0 0.03 0.24 0.16 97 1014.7
20230205235016 45 0.0 0.0 0.02 0.23 0.15 97 1014.4
20230205234037 45 0.0 0.0 0.01 0.22 0.14 97 1014.2
20230205233037 45 0.0 0.0 0.01 0.22 0.14 96 1014.1
20230205232017 45 0.0 0.0 0.01 0.22 0.14 96 1014.0
20230205231017 45 0.0 1.0 0.02 0.22 0.14 96 1013.8
20230205230037 45 0.0 0.0 0.03 0.21 0.13 97 1013.7
20230205225059 45 0.0 0.0 0.04 0.21 0.13 96 1013.5
20230205224016 45 0.0 0.0 0.05 0.21 0.13 96 1013.2
20230205223016 45 0.0 0.0 0.06 0.21 0.13 96 1013.0
20230205222017 45 0.0 0.0 0.07 0.21 0.13 96 1012.9
20230205221017 45 0.0 0.0 0.06 0.20 0.12 96 1012.7
20230205220017 45 0.0 0.0 0.05 0.18 0.10 96 1012.6
20230205215016 45 0.0 0.0 0.04 0.17 0.09 96 1012.5
20230205214018 45 0.0 1.0 0.04 0.16 0.08 96 1012.4
20230205213016 45 0.0 0.0 0.03 0.15 0.07 96 1012.3
20230205212016 45 0.0 0.0 0.03 0.14 0.06 96 1012.3
20230205211017 45 0.0 0.0 0.03 0.14 0.06 96 1012.2
20230205210018 45 0.0 0.0 0.03 0.13 0.05 96 1012.0
20230205205016 46 0.0 0.0 0.04 0.13 0.05 96 1011.9
20230205204017 46 0.0 0.0 0.04 0.12 0.04 96 1011.8
20230205203017 46 0.0 0.0 0.04 0.12 0.04 95 1011.6
20230205202016 45 0.0 0.0 0.03 0.11 0.03 95 1011.5
20230205201016 45 0.0 0.0 0.03 0.11 0.03 95 1011.5
20230205200016 45 0.0 1.0 0.02 0.10 0.02 95 1011.4
20230205195037 45 0.0 0.0 0.01 0.09 0.01 95 1011.3
20230205194036 45 0.0 0.0 0.00 0.08 0.00 94 1011.2
20230205193016 45 0.0 0.0 0.00 0.08 0.00 94 1011.1
20230205192036 45 0.0 1.0 0.00 0.08 0.00 94 1011.1
20230205191016 45 0.0 0.0 0.00 0.08 0.00 94 1010.9
20230205190016 45 0.0 1.0 0.00 0.08 0.00 95 1010.8
20230205185016 44 0.0 1.0 0.00 0.08 0.00 95 1010.6
20230205184016 44 0.0 0.0 0.00 0.08 0.00 96 1010.5
20230205183016 44 0.0 1.0 0.00 0.08 0.00 96 1010.3
20230205182017 44 0.0 1.0 0.00 0.08 0.00 96 1010.1
20230205181016 44 0.0 1.0 0.00 0.08 0.00 96 1009.9
20230205180036 43 0.0 2.0 0.00 0.08 0.00 97 1009.7
20230205175036 42 0.0 4.0 0.00 0.08 0.00 97 1009.3
20230205174016 42 0.0 1.0 0.00 0.08 0.00 97 1009.0
20230205173016 42 0.0 1.0 0.00 0.08 0.00 97 1008.7
20230205172016 41 0.0 0.0 0.00 0.08 0.00 97 1008.5
20230205171016 41 0.0 1.0 0.00 0.08 0.00 97 1008.2
20230205170016 41 0.0 1.0 0.00 0.08 0.00 97 1008.0
20230205165036 40 0.0 1.0 0.00 0.08 0.00 97 1007.7
20230205164036 40 0.0 0.0 0.00 0.08 0.00 97 1007.5
20230205163016 40 0.0 0.0 0.00 0.08 0.00 97 1007.3
20230205162016 40 0.0 0.0 0.00 0.08 0.00 97 1007.0
20230205161016 40 0.0 0.0 0.00 0.08 0.00 97 1006.9
20230205160016 40 0.0 0.0 0.00 0.08 0.00 97 1006.6
20230205155016 40 0.0 0.0 0.00 0.08 0.00 97 1006.4
20230205154015 40 0.0 1.0 0.00 0.08 0.00 97 1006.3
20230205153015 40 0.0 0.0 0.00 0.08 0.00 97 1006.0
20230205152036 40 0.0 0.0 0.00 0.08 0.00 97 1005.8
20230205151016 40 0.0 1.0 0.00 0.08 0.00 97 1005.6
20230205150015 40 0.0 1.0 0.00 0.08 0.00 97 1005.5
20230205145036 40 0.0 0.0 0.00 0.08 0.00 97 1005.4
20230205144016 40 0.0 0.0 0.00 0.08 0.00 97 1005.1
20230205143015 40 0.0 1.0 0.00 0.08 0.00 97 1005.0
20230205142036 41 0.0 1.0 0.00 0.08 0.00 97 1004.8
20230205140016 40 0.0 0.0 0.00 0.08 0.00 97 1004.6
20230205135016 40 0.0 1.0 0.00 0.08 0.00 97 1004.5
20230205134016 41 0.0 0.0 0.00 0.08 0.00 97 1004.3
20230205133016 40 0.0 1.0 0.00 0.08 0.00 97 1004.2
20230205132036 40 0.0 1.0 0.00 0.08 0.00 97 1004.1
20230205131016 41 0.0 1.0 0.00 0.08 0.00 97 1004.0
20230205130040 41 0.0 1.0 0.00 0.08 0.00 97 1004.0
20230205125016 41 0.0 1.0 0.00 0.08 0.00 97 1003.9
20230205124015 41 0.0 0.0 0.00 0.08 0.00 97 1003.9
20230205123016 41 0.0 0.0 0.00 0.08 0.00 97 1003.9
20230205122035 41 0.0 0.0 0.00 0.08 0.00 97 1003.8
20230205121015 41 0.0 1.0 0.00 0.08 0.00 97 1003.9
20230205120036 41 0.0 2.0 0.00 0.08 0.00 97 1003.7
20230205115015 42 0.0 1.0 0.00 0.08 0.00 97 1003.7
20230205114015 41 0.0 1.0 0.00 0.08 0.00 97 1003.9
20230205113016 41 0.0 1.0 0.00 0.08 0.00 97 1003.9
20230205112015 41 0.0 1.0 0.00 0.09 0.00 97 1003.9
20230205111036 41 0.0 1.0 0.00 0.09 0.00 97 1003.9
20230205110016 41 0.0 1.0 0.00 0.09 0.00 97 1003.9
20230205105015 41 0.0 2.0 0.00 0.09 0.00 97 1003.9
20230205104015 41 0.0 1.0 0.00 0.09 0.00 97 1003.9
20230205103016 41 0.0 1.0 0.00 0.09 0.00 97 1004.1
20230205102016 42 0.0 1.0 0.00 0.09 0.00 97 1004.4
20230205101015 42 0.0 0.0 0.00 0.09 0.00 97 1004.5